createdAt,value
2023-02-04T00:00:23.690Z,-0.79
2023-02-04T00:02:51.306Z,-0.77
2023-02-04T00:05:19.409Z,-0.77
2023-02-04T00:07:46.787Z,-0.77
2023-02-04T00:10:14.206Z,-0.78
2023-02-04T00:12:41.440Z,-0.78
2023-02-04T00:15:08.977Z,-0.78
2023-02-04T00:17:36.320Z,-0.81
2023-02-04T00:20:03.508Z,-0.79
2023-02-04T00:22:31.182Z,-0.78
2023-02-04T00:24:58.522Z,-0.79
2023-02-04T00:27:25.619Z,-0.80
2023-02-04T00:29:52.767Z,-0.78
2023-02-04T00:32:20.115Z,-0.77
2023-02-04T00:34:47.497Z,-0.81
2023-02-04T00:37:15.180Z,-0.81
2023-02-04T00:39:42.325Z,-0.81
2023-02-04T00:42:09.641Z,-0.77
2023-02-04T00:44:37.487Z,-0.77
2023-02-04T00:47:05.492Z,-0.78
2023-02-04T00:49:35.057Z,-0.77
2023-02-04T00:52:02.924Z,-0.80
2023-02-04T00:54:30.339Z,-0.84
2023-02-04T00:56:57.614Z,-0.79
2023-02-04T00:59:25.149Z,-0.81
2023-02-04T01:01:52.881Z,-0.83
2023-02-04T01:04:21.477Z,-0.82
2023-02-04T01:06:48.761Z,-0.81
2023-02-04T01:09:16.314Z,-0.82
2023-02-04T01:11:43.392Z,-0.79
2023-02-04T01:14:10.454Z,-0.79
2023-02-04T01:16:40.121Z,-0.84
2023-02-04T01:19:07.376Z,-0.85
2023-02-04T01:21:34.794Z,-0.81
2023-02-04T01:24:02.163Z,-0.83
2023-02-04T01:26:29.247Z,-0.86
2023-02-04T01:28:56.657Z,-0.86
2023-02-04T01:31:25.375Z,-0.89
2023-02-04T01:33:53.201Z,-0.87
2023-02-04T01:36:22.054Z,-0.82
2023-02-04T01:38:50.409Z,-0.85
2023-02-04T01:41:19.054Z,-0.86
2023-02-04T01:43:49.593Z,-0.86
2023-02-04T01:46:18.401Z,-0.83
2023-02-04T01:48:46.929Z,-0.86
2023-02-04T01:51:17.571Z,-0.84
2023-02-04T01:53:44.861Z,-0.84
2023-02-04T01:56:21.565Z,-0.83
2023-02-04T01:58:49.623Z,-0.82
2023-02-04T02:01:44.955Z,-0.80
2023-02-04T02:04:16.537Z,-0.81
2023-02-04T02:06:54.025Z,-0.81
2023-02-04T02:09:21.705Z,-0.79
2023-02-04T02:11:48.793Z,-0.79
2023-02-04T02:14:16.287Z,-0.79
2023-02-04T02:16:44.106Z,-0.78
2023-02-04T02:19:18.040Z,-0.76
2023-02-04T02:22:03.987Z,-0.77
2023-02-04T02:24:34.746Z,-0.77
2023-02-04T02:27:07.479Z,-0.76
2023-02-04T02:29:35.241Z,-0.77
2023-02-04T02:32:02.904Z,-0.76
2023-02-04T02:34:31.115Z,-0.78
2023-02-04T02:37:00.225Z,-0.76
2023-02-04T02:39:28.406Z,-0.75
2023-02-04T02:41:57.685Z,-0.77
2023-02-04T02:44:25.803Z,-0.75
2023-02-04T02:46:54.826Z,-0.75
2023-02-04T02:49:23.088Z,-0.74
2023-02-04T02:51:50.281Z,-0.75
2023-02-04T02:54:29.392Z,-0.76
2023-02-04T02:57:00.069Z,-0.75
2023-02-04T02:59:28.023Z,-0.74
2023-02-04T03:02:02.944Z,-0.75
2023-02-04T03:04:38.767Z,-0.76
2023-02-04T03:07:08.073Z,-0.78
2023-02-04T03:09:36.687Z,-0.77
2023-02-04T03:12:05.665Z,-0.79
2023-02-04T03:14:36.182Z,-0.77
2023-02-04T03:17:05.576Z,-0.78
2023-02-04T03:19:33.662Z,-0.78
2023-02-04T03:22:01.153Z,-0.77
2023-02-04T03:24:28.563Z,-0.80
2023-02-04T03:26:57.341Z,-0.78
2023-02-04T03:29:24.591Z,-0.78
2023-02-04T03:31:52.511Z,-0.78
2023-02-04T03:34:19.930Z,-0.78
2023-02-04T03:36:47.660Z,-0.78
2023-02-04T03:39:14.976Z,-0.80
2023-02-04T03:41:42.327Z,-0.82
2023-02-04T03:44:10.027Z,-0.84
2023-02-04T03:46:37.182Z,-0.83
2023-02-04T03:49:04.480Z,-0.80
2023-02-04T03:51:31.885Z,-0.82
2023-02-04T03:53:59.118Z,-0.81
2023-02-04T03:56:26.307Z,-0.81
2023-02-04T03:58:53.388Z,-0.82
2023-02-04T04:01:20.470Z,-0.81
2023-02-04T04:03:47.947Z,-0.80
2023-02-04T04:06:15.028Z,-0.80
2023-02-04T04:08:42.229Z,-0.82
2023-02-04T04:11:09.726Z,-0.80
2023-02-04T04:13:36.849Z,-0.79
2023-02-04T04:16:05.134Z,-0.79
2023-02-04T04:18:33.225Z,-0.80
2023-02-04T04:21:00.466Z,-0.81
2023-02-04T04:23:27.883Z,-0.84
2023-02-04T04:25:55.124Z,-0.83
2023-02-04T04:28:22.594Z,-0.83
2023-02-04T04:30:49.857Z,-0.86
2023-02-04T04:33:16.944Z,-0.87
2023-02-04T04:35:44.386Z,-0.86
2023-02-04T04:38:11.744Z,-0.89
2023-02-04T04:40:38.854Z,-0.86
2023-02-04T04:43:06.346Z,-0.87
2023-02-04T04:45:33.522Z,-0.88
2023-02-04T04:48:00.638Z,-0.97
2023-02-04T04:50:27.918Z,-1.02
2023-02-04T04:52:55.474Z,-0.96
2023-02-04T04:55:22.799Z,-1.04
2023-02-04T04:57:50.468Z,-1.02
2023-02-04T05:00:21.796Z,-1.00
2023-02-04T05:02:49.200Z,-1.02
2023-02-04T05:05:16.625Z,-1.00
2023-02-04T05:07:44.275Z,-1.04
2023-02-04T05:10:11.924Z,-1.03
2023-02-04T05:12:39.125Z,-1.08
2023-02-04T05:15:10.447Z,-1.18
2023-02-04T05:17:38.568Z,-1.22
2023-02-04T05:20:07.017Z,-1.23
2023-02-04T05:22:35.437Z,-1.21
2023-02-04T05:25:03.820Z,-1.20
2023-02-04T05:27:31.789Z,-1.27
2023-02-04T05:29:59.356Z,-1.27
2023-02-04T05:32:27.771Z,-1.37
2023-02-04T05:34:56.899Z,-1.30
2023-02-04T05:37:28.389Z,-1.35
2023-02-04T05:39:57.028Z,-1.28
2023-02-04T05:42:25.335Z,-1.22
2023-02-04T05:44:55.269Z,-1.23
2023-02-04T05:47:23.894Z,-1.29
2023-02-04T05:49:52.414Z,-1.22
2023-02-04T05:52:21.107Z,-1.26
2023-02-04T05:54:49.115Z,-1.33
2023-02-04T05:57:17.676Z,-1.31
2023-02-04T05:59:46.518Z,-1.59
2023-02-04T06:02:14.522Z,-1.44
2023-02-04T06:04:44.834Z,-1.33
2023-02-04T06:07:12.524Z,-1.52
2023-02-04T06:09:40.421Z,-1.39
2023-02-04T06:12:08.103Z,-1.27
2023-02-04T06:14:36.514Z,-1.27
2023-02-04T06:17:04.989Z,-1.16
2023-02-04T06:19:32.370Z,-1.04
2023-02-04T06:22:00.746Z,-0.99
2023-02-04T06:24:32.329Z,-0.96
2023-02-04T06:26:59.892Z,-0.83
2023-02-04T06:29:28.249Z,-0.79
2023-02-04T06:31:57.091Z,-0.72
2023-02-04T06:34:26.447Z,-0.63
2023-02-04T06:39:54.946Z,-0.65
2023-02-04T06:42:22.649Z,-0.68
2023-02-04T06:44:50.363Z,-0.65
2023-02-04T06:47:22.032Z,-0.86
2023-02-04T06:49:49.667Z,-0.63
2023-02-04T06:52:17.305Z,-0.71
2023-02-04T06:54:45.821Z,-0.61
2023-02-04T06:57:14.147Z,-0.44
2023-02-04T06:59:48.284Z,-0.47
2023-02-04T07:02:18.962Z,-0.44
2023-02-04T07:04:51.254Z,-0.39
2023-02-04T07:07:21.173Z,-0.32
2023-02-04T07:09:50.493Z,-0.38
2023-02-04T07:12:20.601Z,-0.30
2023-02-04T07:14:50.634Z,-0.30
2023-02-04T07:17:19.103Z,-0.20
2023-02-04T07:19:47.580Z,-0.29
2023-02-04T07:22:16.226Z,-0.20
2023-02-04T07:24:44.860Z,-0.20
2023-02-04T07:27:14.162Z,-0.14
2023-02-04T07:29:42.336Z,-0.30
2023-02-04T07:32:10.898Z,-0.19
2023-02-04T07:34:38.741Z,-0.29
2023-02-04T07:37:08.423Z,-0.26
2023-02-04T07:39:37.031Z,-0.23
2023-02-04T07:42:04.428Z,-0.23
2023-02-04T07:44:38.581Z,-0.08
2023-02-04T07:47:06.699Z,-0.10
2023-02-04T07:49:34.274Z,-0.09
2023-02-04T07:52:02.691Z,-0.14
2023-02-04T07:54:30.935Z,-0.07
2023-02-04T07:56:58.598Z,0.08
2023-02-04T07:59:26.349Z,0.13
2023-02-04T08:01:54.492Z,0.27
2023-02-04T08:04:22.248Z,0.33
2023-02-04T08:06:50.293Z,0.21
2023-02-04T08:09:18.622Z,0.33
2023-02-04T08:11:46.501Z,0.51
2023-02-04T08:14:13.826Z,0.61
2023-02-04T08:16:41.715Z,0.53
2023-02-04T08:19:10.806Z,0.53
2023-02-04T08:21:38.543Z,0.75
2023-02-04T08:24:06.168Z,0.75
2023-02-04T08:26:33.145Z,0.90
2023-02-04T08:29:00.284Z,0.97
2023-02-04T08:31:28.259Z,1.10
2023-02-04T08:33:56.030Z,1.18
2023-02-04T08:36:24.191Z,1.20
2023-02-04T08:38:51.823Z,0.96
2023-02-04T08:41:19.307Z,0.92
2023-02-04T08:43:47.189Z,1.08
2023-02-04T08:46:15.926Z,0.97
2023-02-04T08:48:44.452Z,1.08
2023-02-04T08:51:12.328Z,0.96
2023-02-04T08:53:41.305Z,0.93
2023-02-04T08:56:10.721Z,1.03
2023-02-04T08:58:38.786Z,1.08
2023-02-04T09:01:07.618Z,1.14
2023-02-04T09:03:35.971Z,1.11
2023-02-04T09:06:06.088Z,1.29
2023-02-04T09:08:34.464Z,1.32
2023-02-04T09:11:02.610Z,1.41
2023-02-04T09:13:31.617Z,1.24
2023-02-04T09:16:00.466Z,1.50
2023-02-04T09:18:28.556Z,1.56
2023-02-04T09:20:57.114Z,1.88
2023-02-04T09:23:25.576Z,1.90
2023-02-04T09:25:53.890Z,2.04
2023-02-04T09:28:21.390Z,1.98
2023-02-04T09:30:50.283Z,1.92
2023-02-04T09:33:19.046Z,1.73
2023-02-04T09:35:47.162Z,1.90
2023-02-04T09:38:15.395Z,1.85
2023-02-04T09:40:49.895Z,1.60
2023-02-04T09:43:25.261Z,1.72
2023-02-04T09:45:54.578Z,1.91
2023-02-04T09:48:23.347Z,1.94
2023-02-04T09:50:52.463Z,1.87
2023-02-04T09:53:23.685Z,1.78
2023-02-04T09:55:53.696Z,1.67
2023-02-04T09:58:24.334Z,1.47
2023-02-04T10:01:22.186Z,1.83
2023-02-04T10:03:52.061Z,1.93
2023-02-04T10:06:22.106Z,1.97
2023-02-04T10:08:51.863Z,2.04
2023-02-04T10:11:21.424Z,2.06
2023-02-04T10:13:54.855Z,2.11
2023-02-04T10:16:38.207Z,2.18
2023-02-04T10:19:12.118Z,2.20
2023-02-04T10:21:40.760Z,2.18
2023-02-04T10:24:21.998Z,2.20
2023-02-04T10:26:49.620Z,2.24
2023-02-04T10:29:19.329Z,2.21
2023-02-04T10:31:50.104Z,2.14
2023-02-04T10:34:37.993Z,2.10
2023-02-04T10:37:25.845Z,2.16
2023-02-04T10:39:53.941Z,2.33
2023-02-04T10:42:28.053Z,2.44
2023-02-04T10:44:55.726Z,2.55
2023-02-04T10:47:31.559Z,2.53
2023-02-04T10:50:03.383Z,2.51
2023-02-04T10:52:40.444Z,2.25
2023-02-04T10:55:16.995Z,1.71
2023-02-04T10:57:46.847Z,1.89
2023-02-04T11:00:25.808Z,1.65
2023-02-04T11:03:02.489Z,1.62
2023-02-04T11:05:31.958Z,1.53
2023-02-04T11:08:00.161Z,1.59
2023-02-04T11:10:35.587Z,1.58
2023-02-04T11:13:07.965Z,1.64
2023-02-04T11:16:09.472Z,1.61
2023-02-04T11:18:48.821Z,1.29
2023-02-04T11:21:29.051Z,1.48
2023-02-04T11:24:12.543Z,1.49
2023-02-04T11:26:46.580Z,1.51
2023-02-04T11:29:18.161Z,1.53
2023-02-04T11:31:49.166Z,1.59
2023-02-04T11:34:17.925Z,1.46
2023-02-04T11:37:14.051Z,1.38
2023-02-04T11:39:48.376Z,1.64
2023-02-04T11:42:27.611Z,1.70
2023-02-04T11:45:00.044Z,1.77
2023-02-04T13:42:04.365Z,-1.66
2023-02-04T13:44:32.576Z,-1.50
2023-02-04T13:47:00.527Z,-1.34
2023-02-04T13:49:34.931Z,-1.17
2023-02-04T13:52:07.812Z,-0.94
2023-02-04T13:54:40.230Z,-0.78
2023-02-04T13:57:11.555Z,-0.64
2023-02-04T13:59:40.654Z,-0.90
2023-02-04T14:02:16.560Z,-0.83
2023-02-04T14:04:45.949Z,-0.96
2023-02-04T14:07:22.983Z,-1.03
2023-02-04T14:09:52.964Z,-0.90
2023-02-04T14:12:24.025Z,-0.96
2023-02-04T14:14:58.512Z,-1.09
2023-02-04T14:17:31.326Z,-1.07
2023-02-04T14:20:08.487Z,-1.07
2023-02-04T14:22:39.150Z,-1.15
2023-02-04T14:25:11.126Z,-1.20
2023-02-04T14:27:47.991Z,-1.37
2023-02-04T14:30:32.618Z,-1.34
2023-02-04T14:33:09.469Z,-1.42
2023-02-04T14:35:38.386Z,-1.46
2023-02-04T14:38:06.200Z,-1.75
2023-02-04T14:40:36.685Z,-1.61
2023-02-04T14:43:05.238Z,-1.78
2023-02-04T14:45:33.547Z,-1.81
2023-02-04T14:48:05.557Z,-1.99
2023-02-04T14:50:35.347Z,-1.97
2023-02-04T14:53:05.477Z,-2.11
2023-02-04T14:55:36.205Z,-2.03
2023-02-04T14:58:07.200Z,-2.07
2023-02-04T15:00:36.383Z,-2.03
2023-02-04T15:03:04.480Z,-2.12
2023-02-04T15:05:35.336Z,-2.17
2023-02-04T15:08:03.326Z,-2.16
2023-02-04T15:10:32.331Z,-2.14
2023-02-04T15:13:02.309Z,-2.12
2023-02-04T15:15:31.269Z,-2.16
2023-02-04T15:18:01.675Z,-2.20
2023-02-04T15:20:29.491Z,-2.27
2023-02-04T15:22:58.602Z,-2.26
2023-02-04T15:25:29.045Z,-2.24
2023-02-04T15:27:56.652Z,-2.29
2023-02-04T15:30:24.914Z,-2.31
2023-02-04T15:32:52.668Z,-2.35
2023-02-04T15:35:22.051Z,-2.49
2023-02-04T15:37:49.965Z,-2.43
2023-02-04T15:40:17.719Z,-2.42
2023-02-04T15:42:45.263Z,-2.44
2023-02-04T15:45:12.384Z,-2.46
2023-02-04T15:47:39.501Z,-2.45
2023-02-04T15:50:09.417Z,-2.50
2023-02-04T15:52:36.575Z,-2.69
2023-02-04T15:55:04.366Z,-2.66
2023-02-04T15:57:31.717Z,-2.67
2023-02-04T15:59:59.100Z,-2.64
2023-02-04T16:02:26.324Z,-2.61
2023-02-04T16:04:53.658Z,-2.65
2023-02-04T16:07:20.768Z,-2.67
2023-02-04T16:09:48.074Z,-2.67
2023-02-04T16:12:15.054Z,-2.67
2023-02-04T16:14:42.483Z,-2.76
2023-02-04T16:17:10.137Z,-2.74
2023-02-04T16:19:37.523Z,-2.78
2023-02-04T16:22:06.224Z,-2.78
2023-02-04T16:24:34.236Z,-2.89
2023-02-04T16:27:01.824Z,-3.00
2023-02-04T16:29:30.669Z,-3.13
2023-02-04T16:31:58.194Z,-3.03
2023-02-04T16:34:25.786Z,-3.08
2023-02-04T16:36:53.452Z,-3.21
2023-02-04T16:39:21.562Z,-3.21
2023-02-04T16:41:48.950Z,-3.30
2023-02-04T16:44:16.572Z,-3.33
2023-02-04T16:46:44.208Z,-3.37
2023-02-04T16:49:11.183Z,-3.42
2023-02-04T16:51:40.100Z,-3.49
2023-02-04T16:54:07.452Z,-3.55
2023-02-04T16:56:36.191Z,-3.59
2023-02-04T16:59:04.277Z,-3.60
2023-02-04T17:01:32.319Z,-3.66
2023-02-04T17:03:59.528Z,-3.66
2023-02-04T17:06:32.897Z,-3.67
2023-02-04T17:09:00.773Z,-3.72
2023-02-04T17:11:31.890Z,-3.75
2023-02-04T17:14:01.648Z,-3.82
2023-02-04T17:16:29.879Z,-3.86
2023-02-04T17:18:57.758Z,-3.94
2023-02-04T17:21:26.403Z,-3.93
2023-02-04T17:23:55.826Z,-3.95
2023-02-04T17:26:24.302Z,-3.98
2023-02-04T17:28:52.289Z,-4.04
2023-02-04T17:31:19.775Z,-4.05
2023-02-04T17:33:47.640Z,-4.14
2023-02-04T17:36:15.717Z,-4.11
2023-02-04T17:38:42.892Z,-4.08
2023-02-04T17:41:09.989Z,-4.16
2023-02-04T17:43:37.633Z,-4.18
2023-02-04T17:46:05.381Z,-4.22
2023-02-04T17:48:33.119Z,-4.23
2023-02-04T17:51:00.606Z,-4.25
2023-02-04T17:53:28.276Z,-4.29
2023-02-04T17:55:56.033Z,-4.31
2023-02-04T17:58:35.331Z,-4.32
2023-02-04T18:01:17.338Z,-4.36
2023-02-04T18:03:50.163Z,-4.40
2023-02-04T18:06:28.497Z,-4.41
2023-02-04T18:09:02.601Z,-4.48
2023-02-04T18:11:39.600Z,-4.49
2023-02-04T18:14:18.568Z,-4.58
2023-02-04T18:16:46.752Z,-4.53
2023-02-04T18:19:21.646Z,-4.50
2023-02-04T18:21:49.846Z,-4.56
2023-02-04T18:24:30.521Z,-4.51
2023-02-04T18:27:01.953Z,-4.49
2023-02-04T18:29:32.427Z,-4.46
2023-02-04T18:32:06.668Z,-4.50
2023-02-04T18:34:42.699Z,-4.53
2023-02-04T18:37:31.326Z,-4.44
2023-02-04T18:40:11.264Z,-4.41
2023-02-04T18:42:44.232Z,-4.42
2023-02-04T18:45:14.203Z,-4.40
2023-02-04T18:47:41.856Z,-4.48
2023-02-04T18:50:32.004Z,-4.49
2023-02-04T18:53:02.306Z,-4.50
2023-02-04T18:55:36.744Z,-4.60
2023-02-04T18:58:28.135Z,-4.52
2023-02-04T19:01:12.713Z,-4.53
2023-02-04T19:04:06.957Z,-4.53
2023-02-04T19:06:44.041Z,-4.59
2023-02-04T19:09:17.140Z,-4.61
2023-02-04T19:11:50.651Z,-4.49
2023-02-04T19:14:31.356Z,-4.45
2023-02-04T19:17:18.315Z,-4.53
2023-02-04T19:20:05.699Z,-4.55
2023-02-04T19:22:53.299Z,-4.63
2023-02-04T19:25:30.977Z,-4.67
2023-02-04T19:28:30.259Z,-4.70
2023-02-04T19:31:05.872Z,-4.79
2023-02-04T19:33:43.253Z,-4.82
2023-02-04T19:36:34.303Z,-4.85
2023-02-04T19:39:26.015Z,-4.94
2023-02-04T19:41:58.361Z,-5.04
2023-02-04T19:44:46.053Z,-5.02
2023-02-04T19:47:30.511Z,-5.06
2023-02-04T19:50:10.882Z,-5.12
2023-02-04T19:52:39.462Z,-5.17
2023-02-04T19:55:17.861Z,-5.21
2023-02-04T19:57:55.565Z,-5.25
2023-02-04T20:00:40.093Z,-5.35
2023-02-04T20:03:40.451Z,-5.34
2023-02-04T20:06:31.149Z,-5.49
2023-02-04T20:09:05.378Z,-5.54
2023-02-04T20:11:33.893Z,-5.55
2023-02-04T20:14:24.396Z,-5.61
2023-02-04T20:17:01.318Z,-5.65
2023-02-04T20:19:33.713Z,-5.72
2023-02-04T20:22:36.477Z,-5.83
2023-02-04T20:25:32.185Z,-5.90
2023-02-04T20:28:32.202Z,-5.96
2023-02-04T20:31:02.238Z,-6.05
2023-02-04T20:33:56.577Z,-6.09
2023-02-04T20:36:27.993Z,-6.08
2023-02-04T20:39:42.278Z,-6.12
2023-02-04T20:42:24.394Z,-6.15
2023-02-04T20:44:54.564Z,-6.20
2023-02-04T20:47:26.798Z,-6.22
2023-02-04T20:50:03.300Z,-6.19
2023-02-04T20:52:47.570Z,-6.20
2023-02-04T20:55:32.427Z,-6.22
2023-02-04T20:58:17.759Z,-6.26
2023-02-04T21:00:55.977Z,-6.24
2023-02-04T21:03:40.142Z,-6.20
2023-02-04T21:06:37.331Z,-6.18
2023-02-04T21:09:12.138Z,-6.17
2023-02-04T21:11:40.456Z,-6.19
2023-02-04T21:14:08.594Z,-6.24
2023-02-04T21:16:40.213Z,-6.23
2023-02-04T21:19:11.693Z,-6.23
2023-02-04T21:21:43.703Z,-6.28
2023-02-04T21:24:12.611Z,-6.32
2023-02-04T21:26:42.280Z,-6.29
2023-02-04T21:29:11.712Z,-6.27
2023-02-04T21:31:39.185Z,-6.28
2023-02-04T21:34:07.406Z,-6.27
2023-02-04T21:36:34.766Z,-6.28
2023-02-04T21:39:02.037Z,-6.36
2023-02-04T21:41:29.196Z,-6.32
2023-02-04T21:43:56.587Z,-6.36
2023-02-04T21:46:23.668Z,-6.38
2023-02-04T21:48:51.604Z,-6.42
2023-02-04T21:51:18.887Z,-6.45
2023-02-04T21:53:46.834Z,-6.39
2023-02-04T21:56:14.787Z,-6.37
2023-02-04T21:58:42.351Z,-6.31
2023-02-04T22:01:10.607Z,-6.26
2023-02-04T22:03:37.912Z,-6.22
2023-02-04T22:06:05.543Z,-6.19
2023-02-04T22:08:33.098Z,-6.18
2023-02-04T22:11:00.616Z,-6.14
2023-02-04T22:13:28.320Z,-6.10
2023-02-04T22:15:55.642Z,-6.11
2023-02-04T22:18:23.560Z,-6.10
2023-02-04T22:20:50.921Z,-6.09
2023-02-04T22:23:18.334Z,-6.09
2023-02-04T22:25:45.572Z,-6.13
2023-02-04T22:28:13.175Z,-6.16
2023-02-04T22:30:40.880Z,-6.18
2023-02-04T22:33:08.420Z,-6.21
2023-02-04T22:35:36.938Z,-6.23
2023-02-04T22:38:04.571Z,-6.24
2023-02-04T22:40:31.968Z,-6.22
2023-02-04T22:43:00.527Z,-6.23
2023-02-04T22:45:27.997Z,-6.20
2023-02-04T22:47:55.321Z,-6.17
2023-02-04T22:50:22.520Z,-6.13
2023-02-04T22:52:49.817Z,-6.08
2023-02-04T22:55:17.138Z,-6.02
2023-02-04T22:57:45.022Z,-5.88
2023-02-04T23:00:13.493Z,-5.77
2023-02-04T23:02:40.892Z,-5.64
2023-02-04T23:05:10.026Z,-5.46
2023-02-04T23:07:37.485Z,-5.33
2023-02-04T23:10:05.248Z,-5.19
2023-02-04T23:12:32.624Z,-5.10
2023-02-04T23:14:59.706Z,-5.00
2023-02-04T23:17:26.779Z,-4.92
2023-02-04T23:19:53.766Z,-4.89
2023-02-04T23:22:21.296Z,-4.82
2023-02-04T23:24:49.868Z,-4.78
2023-02-04T23:27:17.232Z,-4.79
2023-02-04T23:29:44.636Z,-4.81
2023-02-04T23:32:11.842Z,-4.85
2023-02-04T23:34:38.894Z,-4.82
2023-02-04T23:37:06.842Z,-4.80
2023-02-04T23:39:34.210Z,-4.79
2023-02-04T23:42:02.215Z,-4.73
2023-02-04T23:44:29.515Z,-4.74
2023-02-04T23:46:57.196Z,-4.71
2023-02-04T23:49:24.599Z,-4.68
2023-02-04T23:51:52.007Z,-4.64
2023-02-04T23:54:19.313Z,-4.62
2023-02-04T23:56:48.814Z,-4.58
2023-02-04T23:59:16.762Z,-4.54
